Date,TemperatureHighF,TemperatureAvgF,TemperatureLowF,DewpointHighF,DewpointAvgF,DewpointLowF,HumidityHigh,HumidityAvg,HumidityLow,PressureMaxIn,PressureMinIn,WindSpeedMaxMPH,WindSpeedAvgMPH,GustSpeedMaxMPH,PrecipitationSumIn
2013-1-1,18,12,6,12,6,1,82,75,65,30.61,30.49,0,0,0,0.00
2013-1-2,32,22,6,24,16,1,83,77,71,30.53,30.36,0,0,0,0.00
2013-1-3,29,23,10,25,17,6,87,79,68,30.67,30.43,0,0,0,0.00
2013-1-4,34,23,10,26,18,6,86,80,73,30.64,30.50,0,0,0,0.00
2013-1-5,38,32,19,34,28,16,87,85,73,30.51,30.26,0,0,0,0.08
2013-1-6,26,24,19,21,19,14,83,79,75,30.60,30.48,0,0,0,0.00
2013-1-7,34,32,31,27,26,26,81,79,76,30.40,30.38,0,0,0,0.00
2013-1-8,43,36,27,34,29,22,84,77,69,30.43,30.30,0,0,0,0.00
2013-1-9,43,36,30,34,29,24,88,77,60,30.81,30.34,0,0,0,0.00
2013-1-10,37,37,37,35,35,35,93,93,92,30.23,30.17,0,0,0,0.20
2013-1-11,53,51,41,49,47,40,95,87,82,30.02,29.91,0,0,0,0.01
2013-1-12,52,39,21,47,34,18,87,81,72,30.33,29.94,0,0,0,0.00
2013-1-13,21,16,8,18,10,4,87,76,67,30.61,30.25,0,0,0,0.00
2013-1-14,25,14,6,16,8,2,83,76,63,30.82,30.61,0,0,0,0.00
2013-1-15,28,19,10,19,12,6,84,76,65,30.76,30.45,0,0,0,0.01
2013-1-16,37,28,15,31,21,10,84,75,63,30.45,30.16,0,0,0,0.08
2013-1-17,36,27,20,31,18,13,84,70,50,30.76,30.42,0,0,0,0.00
2013-1-18,42,26,22,32,19,16,77,76,66,30.75,30.23,0,0,0,0.00
2013-1-19,42,36,20,34,25,8,74,66,55,30.43,30.16,0,0,0,0.00
2013-1-20,20,18,10,9,7,2,69,63,61,30.66,30.43,0,0,0,0.00
2013-1-21,3,3,3,-3,-3,-3,75,74,73,30.66,30.65,0,0,0,0.00
2013-1-22,13,6,-2,2,-3,-9,76,65,58,30.72,30.65,0,0,0,0.00
2013-1-23,29,19,13,14,8,2,68,60,52,30.67,30.43,0,0,0,0.00
2013-1-24,19,14,5,8,1,-5,63,56,50,31.01,30.69,0,0,0,0.00
2013-1-25,35,28,20,21,17,8,76,64,52,30.46,30.30,0,0,0,0.00
2013-1-26,29,20,9,15,10,2,74,65,54,30.74,30.58,0,0,0,0.00
2013-1-27,41,31,27,39,25,15,93,79,61,30.64,30.13,0,0,0,0.22
2013-1-28,48,42,39,46,40,37,95,92,88,30.27,30.02,0,0,0,0.03
2013-1-29,62,54,39,59,52,37,96,92,88,29.99,29.77,0,0,0,0.59
2013-1-30,34,25,15,32,22,10,94,89,82,30.06,29.59,0,0,0,0.11
2013-1-31,16,9,0,13,4,-6,87,78,67,30.61,30.06,0,0,0,0.00
2013-2-1,18,6,-3,14,-1,-9,82,75,69,30.74,30.44,0,0,0,0.00
2013-2-2,25,20,13,21,14,7,87,78,65,30.45,30.31,0,0,0,0.00
2013-2-3,27,21,16,18,15,12,90,78,65,30.42,30.27,0,0,0,0.00
2013-2-4,27,23,14,21,17,10,82,78,72,30.31,30.10,0,0,0,0.00
2013-2-5,36,28,13,29,22,9,85,81,73,30.44,30.13,0,0,0,0.01
2013-2-6,41,29,20,33,24,16,87,82,73,30.52,30.34,0,0,0,0.02
2013-2-7,37,35,31,35,32,28,93,91,83,30.39,30.19,0,0,0,0.48
2013-2-8,32,28,26,28,23,21,88,81,76,30.70,30.39,0,0,0,0.00
2013-2-9,36,29,25,30,26,21,91,85,79,30.71,30.33,0,0,0,0.00
2013-2-10,47,41,31,46,38,28,95,91,70,30.33,29.68,0,0,0,0.21
2013-2-11,33,31,28,27,24,21,79,74,69,30.41,30.01,0,0,0,0.00
2013-2-12,36,29,25,28,23,19,85,76,65,30.46,30.20,0,0,0,0.00
2013-2-13,43,35,26,34,29,23,88,79,67,30.20,29.99,0,0,0,0.00
2013-2-14,43,37,29,32,29,26,87,74,55,30.36,29.95,0,0,0,0.00
2013-2-15,31,25,17,26,15,9,86,66,46,30.57,30.35,0,0,0,0.00
2013-2-16,27,19,11,14,10,5,79,68,55,30.58,30.47,0,0,0,0.00
2013-2-17,35,24,11,23,15,5,79,69,56,30.51,30.16,0,0,0,0.00
2013-2-18,57,40,31,42,32,22,92,74,56,30.17,29.80,0,0,0,0.03
2013-2-20,24,17,4,15,9,-2,79,72,66,30.75,30.67,0,0,0,0.00
2013-2-21,28,21,12,24,16,7,92,83,77,30.71,30.21,0,0,0,0.00
2013-2-22,37,28,22,33,24,18,92,87,79,30.26,30.09,0,0,0,0.01
2013-2-23,32,25,18,23,19,14,86,79,67,30.30,30.24,0,0,0,0.01
2013-2-24,33,24,11,25,19,8,88,81,70,30.44,30.30,0,0,0,0.00
2013-2-25,38,30,19,31,25,16,88,83,75,30.46,30.22,0,0,0,0.05
2013-2-26,35,32,31,30,29,28,91,86,75,30.22,29.86,0,0,0,0.01
2013-2-27,36,32,29,32,29,27,91,89,83,30.13,29.93,0,0,0,0.13
2013-2-28,40,34,30,33,29,26,91,83,68,30.42,30.13,0,0,0,0.25
2013-3-1,34,28,24,26,21,18,87,76,65,30.58,30.42,0,0,0,0.01
2013-3-2,30,22,14,19,14,9,83,71,56,30.59,30.51,0,0,0,0.00
2013-3-3,30,20,9,18,12,5,84,71,58,30.51,30.38,0,0,0,0.00
2013-3-4,32,28,22,25,21,13,83,76,67,30.40,30.22,0,0,0,0.00
2013-3-5,36,31,26,31,27,23,90,85,80,30.45,30.17,0,0,0,0.01
2013-3-6,35,28,22,25,22,19,87,79,66,30.68,30.46,0,0,0,0.02
2013-3-7,36,28,21,27,22,17,84,78,68,30.75,30.66,0,0,0,0.02
2013-3-8,37,29,17,30,24,13,88,81,73,30.76,30.54,0,0,0,0.03
2013-3-9,39,36,33,37,33,29,91,88,81,30.55,30.07,0,0,0,0.27
2013-3-10,43,40,36,41,38,35,95,94,91,30.08,29.86,0,0,0,0.78
2013-3-11,36,34,29,35,31,24,95,91,80,30.19,29.89,0,0,0,0.02
2013-3-12,39,30,24,33,24,18,89,80,66,30.43,30.18,0,0,0,0.01
2013-3-13,35,27,21,20,18,15,84,68,48,30.69,30.43,0,0,0,0.00
2013-3-14,39,31,22,32,25,16,86,79,68,30.69,30.37,0,0,0,0.00
2013-3-15,45,36,28,37,31,25,90,83,72,30.38,30.03,0,0,0,0.00
2013-3-16,40,35,32,32,29,25,92,80,61,30.44,30.02,0,0,0,0.00
2013-3-17,35,31,25,27,23,17,82,73,66,30.53,30.24,0,0,0,0.00
2013-3-18,38,30,20,34,25,12,90,81,69,30.24,29.96,0,0,0,0.05
2013-3-19,32,23,15,19,14,8,77,69,52,30.48,30.18,0,0,0,0.00
2013-3-20,26,20,12,18,9,3,73,61,51,30.52,30.41,0,0,0,0.00
2013-3-21,31,23,11,17,11,4,77,62,46,30.43,30.33,0,0,0,0.00
2013-3-22,39,30,18,25,19,12,82,64,47,30.39,30.33,0,0,0,0.02
2013-3-23,42,35,25,31,22,18,80,61,46,30.45,30.32,0,0,0,0.00
2013-3-24,34,31,29,28,26,23,87,81,66,30.35,30.12,0,0,0,0.02
2013-3-29,56,49,31,36,33,25,82,55,40,30.64,30.53,0,0,0,0.00
2013-3-30,61,55,47,43,41,40,78,60,51,30.37,30.18,0,0,0,0.00
2013-3-31,57,47,35,43,34,23,88,61,40,30.29,30.12,0,0,0,0.00
2013-4-1,45,34,27,28,20,18,76,58,41,30.56,30.29,0,0,0,0.00
2013-4-2,47,35,21,30,19,15,79,54,32,30.67,30.56,0,0,0,0.00
2013-4-3,47,36,23,29,18,15,77,50,33,30.78,30.61,0,0,0,0.00
2013-4-4,60,46,28,36,27,15,68,49,34,30.61,30.31,0,0,0,0.00
2013-4-5,55,45,32,35,28,25,76,53,33,30.56,30.35,0,0,0,0.00
2013-4-6,72,53,37,49,36,19,83,53,34,30.36,29.89,0,0,0,0.00
2013-4-7,63,52,40,44,41,35,83,66,48,30.28,30.00,0,0,0,0.00
2013-4-8,72,54,43,58,47,39,95,78,56,30.20,29.80,0,0,0,0.80
2013-4-9,71,53,42,63,49,39,92,86,72,30.23,30.08,0,0,0,0.17
2013-4-10,42,41,41,39,39,38,92,90,90,30.24,30.14,0,0,0,0.00
2013-4-12,42,39,37,34,32,31,81,76,70,30.20,30.08,0,0,0,0.00
2013-4-13,50,41,34,35,32,28,85,70,52,30.30,30.19,0,0,0,0.00
2013-4-14,75,56,39,54,43,34,85,66,40,30.26,29.83,0,0,0,0.04
2013-4-15,68,53,41,57,45,36,91,75,43,30.34,29.96,0,0,0,0.04
2013-4-16,57,47,34,40,36,30,87,66,50,30.54,30.28,0,0,0,0.00
2013-4-17,49,44,40,48,41,34,96,88,69,30.57,29.99,0,0,0,1.44
2013-4-18,62,51,37,61,49,32,97,93,83,30.11,29.66,0,0,0,1.50
2013-4-19,41,37,34,34,30,27,88,78,67,30.31,29.84,0,0,0,0.00
2013-4-20,58,41,28,40,28,23,89,62,43,30.68,30.31,0,0,0,0.18
2013-4-21,58,46,36,42,34,26,76,64,51,30.76,30.55,0,0,0,0.00
2013-4-22,69,58,46,45,40,36,75,55,38,30.56,30.30,0,0,0,0.01
2013-4-23,54,43,39,46,38,33,88,83,71,30.35,30.24,0,0,0,0.15
2013-4-24,54,45,36,36,31,28,80,60,40,30.41,30.30,0,0,0,0.00
2013-4-25,54,45,35,36,29,22,86,57,30,30.60,30.38,0,0,0,0.00
2013-4-26,70,56,40,48,40,28,69,56,42,30.60,30.52,0,0,0,0.00
2013-4-27,76,58,43,57,45,39,87,63,48,30.58,30.33,0,0,0,0.00
2013-4-28,72,67,57,55,49,44,80,54,43,30.25,30.12,0,0,0,0.02
2013-4-29,79,64,50,60,53,46,85,69,48,30.18,29.99,0,0,0,0.00
2013-4-30,87,75,60,64,55,49,83,55,30,30.22,30.00,0,0,0,0.00
2013-5-1,91,76,60,63,54,46,70,48,30,30.47,30.22,0,0,0,0.00
2013-5-2,64,52,40,47,41,36,87,68,49,30.59,30.44,0,0,0,0.00
2013-5-3,51,43,37,49,40,34,95,92,84,30.49,30.17,0,0,0,0.85
2013-5-4,71,58,50,59,53,48,95,86,59,30.35,30.18,0,0,0,0.08
2013-5-5,74,68,59,60,52,47,88,57,40,30.34,30.26,0,0,0,0.00
2013-5-6,77,65,51,57,48,43,85,57,32,30.37,30.29,0,0,0,0.00
2013-5-7,81,69,54,55,46,40,79,46,30,30.37,30.29,0,0,0,0.00
2013-5-8,86,72,52,58,50,41,73,48,29,30.35,30.27,0,0,0,0.00
2013-5-9,75,64,59,63,58,53,93,81,64,30.28,30.09,0,0,0,0.42
2013-5-10,59,52,46,57,48,43,94,86,76,30.30,30.09,0,0,0,0.02
2013-5-11,62,52,44,54,38,27,94,62,34,30.42,30.19,0,0,0,0.01
2013-5-12,71,51,38,40,30,26,70,46,30,30.50,30.40,0,0,0,0.00
2013-5-13,78,59,38,49,36,28,70,44,26,30.49,30.23,0,0,0,0.00
2013-5-14,91,77,56,64,54,39,68,46,30,30.23,29.92,0,0,0,0.00
2013-5-15,94,78,65,56,51,46,53,40,27,30.17,29.95,0,0,0,0.00
2013-5-16,84,73,56,59,49,45,73,45,28,30.26,30.15,0,0,0,0.00
2013-5-17,86,75,64,65,59,50,82,60,41,30.30,30.19,0,0,0,0.00
2013-5-18,85,73,59,67,61,55,89,68,50,30.33,30.19,0,0,0,0.00
2013-5-19,89,74,64,70,63,57,86,71,51,30.23,29.91,0,0,0,0.57
2013-5-20,84,68,62,69,60,59,90,79,53,30.07,29.83,0,0,0,0.26
2013-5-21,84,71,62,68,60,55,90,68,53,29.99,29.90,0,0,0,0.00
2013-5-22,75,62,59,60,56,54,87,81,56,30.05,29.90,0,0,0,0.00
2013-5-23,67,57,51,54,48,42,91,72,52,30.58,30.07,0,0,0,0.03
2013-5-24,66,57,38,42,38,33,87,52,32,30.77,30.58,0,0,0,0.00
2013-5-25,58,53,47,44,42,41,87,69,55,30.63,30.57,0,0,0,0.17
2013-5-28,79,71,64,72,67,61,92,86,78,30.13,29.96,0,0,0,0.02
2013-5-29,92,76,61,76,66,58,92,74,56,30.20,29.99,0,0,0,0.03
2013-5-30,91,78,64,72,67,60,86,70,51,30.15,29.98,0,0,0,0.05
2013-5-31,73,70,68,66,65,64,90,84,78,30.01,29.94,0,0,0,0.00
2013-6-1,79,70,63,69,62,57,91,78,58,30.06,29.94,0,0,0,0.00
2013-6-2,69,61,50,58,51,43,90,73,54,30.34,30.06,0,0,0,0.00
2013-6-3,87,64,49,60,48,44,87,60,36,30.43,30.31,0,0,0,0.00
2013-6-4,79,68,52,55,50,46,80,56,39,30.46,30.31,0,0,0,0.00
2013-6-5,68,62,57,60,54,49,94,76,59,30.37,30.22,0,0,0,0.22
2013-6-6,67,59,55,61,55,52,93,87,77,30.23,30.16,0,0,0,0.06
2013-6-7,77,66,57,63,55,50,87,69,50,30.27,30.19,0,0,0,0.00
2013-6-8,81,69,53,60,53,46,82,58,42,30.27,30.20,0,0,0,0.00
2013-6-9,80,67,61,64,58,51,93,74,52,30.23,30.05,0,0,0,0.15
2013-6-10,76,65,58,66,61,56,95,86,70,30.18,30.03,0,0,0,0.00
2013-6-11,93,76,61,72,65,58,92,72,49,30.21,30.09,0,0,0,0.00
2013-6-12,93,80,70,77,70,65,89,73,53,30.18,29.86,0,0,0,0.00
2013-6-13,93,74,60,75,61,56,94,66,43,30.32,29.97,0,0,0,0.48
2013-6-14,77,70,58,61,57,52,88,65,50,30.44,30.25,0,0,0,0.00
2013-6-15,86,74,64,71,65,57,86,74,59,30.32,30.12,0,0,0,0.01
2013-6-16,86,74,65,71,64,55,90,72,54,30.25,30.19,0,0,0,0.01
2013-6-17,99,80,62,73,62,55,89,58,43,30.25,30.15,0,0,0,0.00
2013-6-18,79,72,59,60,57,53,81,61,48,30.36,30.19,0,0,0,0.00
2013-6-19,82,71,54,61,55,46,77,58,41,30.44,30.33,0,0,0,0.00
2013-6-20,93,83,60,67,62,54,84,50,39,30.43,30.31,0,0,0,0.00
2013-6-21,83,75,67,71,66,62,90,74,63,30.48,30.22,0,0,0,0.13
2013-6-22,89,79,67,78,71,64,93,77,67,30.42,30.20,0,0,0,0.06
2013-6-23,92,78,68,74,68,63,90,70,49,30.30,30.16,0,0,0,0.00
2013-6-24,85,69,64,77,66,62,95,90,70,30.42,30.17,0,0,0,1.34
2013-6-25,91,78,67,78,71,64,94,82,64,30.22,30.07,0,0,0,0.03
2013-6-26,88,78,67,77,71,65,93,81,64,30.08,29.97,0,0,0,0.06
2013-6-27,104,82,70,79,70,60,93,70,43,30.15,30.05,0,0,0,0.00
2013-6-28,100,77,65,71,63,60,82,63,38,30.10,29.96,0,0,0,0.00
2013-6-29,76,68,64,67,63,59,89,84,73,30.11,29.93,0,0,0,0.21
2013-6-30,87,73,62,67,60,51,90,66,45,30.33,30.11,0,0,0,0.00
2013-7-1,82,71,55,63,53,50,85,55,41,30.39,30.31,0,0,0,0.00
2013-7-2,86,70,58,64,55,50,82,60,39,30.41,30.33,0,0,0,0.00
2013-7-3,89,69,53,65,54,48,88,63,40,30.39,30.32,0,0,0,0.00
2013-7-4,92,76,58,69,60,51,82,61,45,30.38,30.30,0,0,0,0.00
2013-7-5,98,79,64,71,63,58,84,60,41,30.37,30.29,0,0,0,0.00
2013-7-6,96,79,63,73,65,58,86,64,47,30.34,30.24,0,0,0,0.00
2013-7-7,96,83,69,73,69,64,86,65,45,30.29,30.22,0,0,0,0.00
2013-7-8,90,80,70,76,72,67,93,76,61,30.29,30.24,0,0,0,0.19
2013-7-9,87,80,74,78,74,70,91,83,72,30.32,30.16,0,0,0,0.05
2013-7-10,103,80,64,79,68,58,92,69,44,30.34,30.15,0,0,0,0.00
2013-7-11,90,73,60,71,59,54,92,64,40,30.43,30.33,0,0,0,0.00
2013-7-12,88,74,57,66,58,53,90,60,38,30.47,30.37,0,0,0,0.00
2013-7-13,84,74,58,66,60,52,86,64,51,30.46,30.37,0,0,0,0.00
2013-7-14,90,78,64,71,67,59,86,69,51,30.50,30.42,0,0,0,0.00
2013-7-15,94,82,68,76,72,65,91,72,54,30.57,30.50,0,0,0,0.00
2013-7-16,107,86,71,82,74,68,93,70,44,30.61,30.54,0,0,0,0.00
2013-7-17,111,88,73,82,74,70,89,67,37,30.63,30.50,0,0,0,0.00
2013-7-18,111,88,73,83,74,70,92,66,39,30.51,30.26,0,0,0,0.00
2013-7-19,105,86,72,77,71,66,87,63,39,30.26,30.07,0,0,0,0.03
2013-7-20,105,81,65,78,67,60,92,66,37,30.25,30.14,0,0,0,0.01
2013-7-21,88,76,64,73,67,60,91,74,56,30.25,30.13,0,0,0,0.00
2013-7-22,98,80,65,74,68,62,93,71,45,30.19,30.02,0,0,0,0.03
2013-7-23,94,74,63,75,62,55,94,69,48,30.28,30.06,0,0,0,0.01
2013-7-24,84,69,55,65,56,52,91,65,47,30.39,30.28,0,0,0,0.00
2013-7-25,94,74,57,67,60,53,88,64,40,30.41,30.32,0,0,0,0.00
2013-7-26,79,69,61,70,63,56,92,81,66,30.35,30.19,0,0,0,0.03
2013-7-27,76,62,54,62,53,48,90,73,55,30.29,30.23,0,0,0,0.00
2013-7-28,89,65,54,62,53,48,83,66,34,30.36,30.20,0,0,0,0.00
2013-7-29,92,70,52,65,55,48,90,63,38,30.46,30.35,0,0,0,0.00
2013-7-30,67,64,62,64,60,54,94,86,66,30.45,30.34,0,0,0,0.24
2013-7-31,82,71,65,71,66,62,95,85,66,30.36,30.27,0,0,0,0.00
2013-8-1,100,74,59,73,62,57,93,68,39,30.35,30.21,0,0,0,0.00
2013-8-2,90,78,66,73,66,61,84,69,54,30.27,30.16,0,0,0,0.00
2013-8-3,97,73,59,72,59,54,92,64,38,30.46,30.27,0,0,0,0.00
2013-8-4,94,72,55,67,56,51,89,60,36,30.52,30.39,0,0,0,0.00
2013-8-5,76,66,58,68,61,54,95,85,69,30.40,30.15,0,0,0,0.80
2013-8-6,88,76,68,77,71,65,95,85,66,30.19,30.10,0,0,0,0.01
2013-8-7,91,78,64,80,70,60,94,76,58,30.27,30.08,0,0,0,0.00
2013-8-8,84,72,60,68,63,58,93,74,56,30.33,30.25,0,0,0,0.00
2013-8-9,96,75,62,73,65,59,91,73,39,30.38,30.28,0,0,0,0.00
2013-8-10,96,72,59,69,59,54,90,66,39,30.48,30.38,0,0,0,0.00
2013-8-11,88,73,60,71,62,54,90,71,50,30.45,30.31,0,0,0,0.00
2013-8-12,86,75,64,72,65,58,83,72,55,30.34,30.21,0,0,0,0.00
2013-8-13,77,66,55,61,54,48,90,66,45,30.47,30.28,0,0,0,0.00
2013-8-14,90,66,51,66,53,48,91,65,40,30.54,30.44,0,0,0,0.00
2013-8-15,82,67,57,63,55,50,83,67,46,30.48,30.41,0,0,0,0.00
2013-8-16,93,70,55,69,57,52,92,66,43,30.50,30.44,0,0,0,0.00
2013-8-17,84,69,54,63,57,51,91,66,46,30.54,30.46,0,0,0,0.00
2013-8-18,91,71,55,67,58,52,90,66,44,30.53,30.40,0,0,0,0.00
2013-8-19,87,75,60,69,63,56,87,69,51,30.43,30.33,0,0,0,0.00
2013-8-20,89,76,66,71,65,61,88,72,51,30.40,30.31,0,0,0,0.00
2013-8-21,91,80,69,72,68,63,83,68,52,30.37,30.26,0,0,0,0.00
2013-8-22,78,74,66,70,67,63,91,79,70,30.46,30.30,0,0,0,0.01
2013-8-23,82,72,62,69,63,56,94,75,47,30.48,30.40,0,0,0,0.00
2013-8-24,87,76,59,71,64,54,83,68,50,30.54,30.44,0,0,0,0.00
2013-8-25,95,81,70,73,68,64,84,66,47,30.54,30.43,0,0,0,0.00
2013-8-26,89,76,70,73,68,63,82,75,57,30.45,30.29,0,0,0,0.00
2013-8-27,92,81,75,72,69,67,84,70,51,30.30,30.15,0,0,0,0.00
2013-8-28,97,84,73,80,72,66,86,69,54,30.32,30.19,0,0,0,0.00
2013-8-29,85,76,68,74,70,65,92,81,67,30.39,30.26,0,0,0,0.00
2013-8-30,102,84,71,82,73,68,94,70,49,30.27,30.06,0,0,0,0.08
2013-8-31,86,76,69,73,69,66,91,79,63,30.13,30.07,0,0,0,0.00
2013-9-1,90,76,65,76,67,59,94,75,54,30.17,30.03,0,0,0,0.00
2013-9-2,80,70,58,65,59,52,88,70,52,30.32,30.17,0,0,0,0.00
2013-9-3,78,65,52,61,55,49,89,72,52,30.41,30.31,0,0,0,0.00
2013-9-4,84,71,56,66,60,53,92,72,51,30.46,30.35,0,0,0,0.00
2013-9-5,84,74,65,70,64,58,85,73,61,30.52,30.41,0,0,0,0.00
2013-9-6,86,73,57,67,60,51,81,65,47,30.51,30.29,0,0,0,0.00
2013-9-7,90,79,67,71,66,61,80,67,52,30.30,30.16,0,0,0,0.00
2013-9-8,85,76,70,72,68,65,87,77,64,30.30,30.18,0,0,0,0.00
2013-9-9,95,82,68,76,70,64,93,69,46,30.22,30.10,0,0,0,0.00
2013-9-10,94,85,74,70,64,62,68,52,36,30.30,30.17,0,0,0,0.00
2013-9-11,92,80,70,73,67,63,86,65,50,30.37,30.28,0,0,0,0.00
2013-9-12,80,71,59,65,57,48,87,64,42,30.43,30.31,0,0,0,0.00
2013-9-13,68,60,51,49,45,38,78,58,35,30.54,30.42,0,0,0,0.00
2013-9-14,72,66,54,51,47,44,73,51,40,30.49,30.29,0,0,0,0.00
2013-9-15,63,58,53,61,53,44,94,84,56,30.51,30.25,0,0,0,0.29
2013-9-16,66,58,52,54,50,46,94,78,54,30.69,30.50,0,0,0,0.00
2013-9-17,71,60,46,59,52,43,91,77,61,30.63,30.36,0,0,0,0.00
2013-9-18,80,70,60,72,64,54,93,80,72,30.37,30.14,0,0,0,0.09
2013-9-19,90,78,67,74,69,64,92,75,53,30.20,30.01,0,0,0,0.02
2013-9-20,70,66,58,65,60,53,94,83,67,30.19,30.09,0,0,0,0.00
2013-9-21,68,59,49,56,51,46,91,77,61,30.25,30.17,0,0,0,0.00
2013-9-22,68,57,45,53,48,42,90,71,49,30.35,30.25,0,0,0,0.00
2013-9-23,72,59,46,54,49,43,89,70,48,30.37,30.25,0,0,0,0.00
2013-9-24,73,60,46,55,50,43,89,71,51,30.29,30.17,0,0,0,0.00
2013-9-25,75,62,50,56,52,47,90,70,49,30.26,30.18,0,0,0,0.00
2013-9-26,80,65,50,62,54,47,91,69,51,30.33,30.24,0,0,0,0.00
2013-9-27,81,67,53,61,52,46,81,59,35,30.40,30.29,0,0,0,0.00
2013-9-28,81,66,55,66,58,49,90,76,55,30.31,30.17,0,0,0,0.00
2013-9-29,69,58,47,56,49,42,93,74,47,30.39,30.27,0,0,0,0.00
2013-9-30,74,61,45,55,48,40,84,65,44,30.29,30.12,0,0,0,0.00
2013-10-1,81,70,58,67,61,53,90,74,58,30.26,30.14,0,0,0,0.00
2013-10-2,83,71,62,64,58,47,87,66,38,30.37,30.22,0,0,0,0.00
2013-10-3,79,70,66,72,66,60,94,86,76,30.22,30.09,0,0,0,0.02
2013-10-4,77,70,66,73,66,62,94,88,77,30.28,30.13,0,0,0,0.01
2013-10-5,78,69,54,72,63,45,91,82,70,30.17,30.06,0,0,0,0.00
2013-10-6,57,49,44,45,42,40,87,76,60,30.11,30.00,0,0,0,0.00
2013-10-7,70,56,43,54,46,40,91,72,48,30.36,30.07,0,0,0,0.00
2013-10-8,75,60,47,54,48,42,85,65,41,30.45,30.36,0,0,0,0.00
2013-10-9,72,57,47,52,45,42,83,66,39,30.50,30.39,0,0,0,0.00
2013-10-10,74,63,44,58,51,39,85,67,51,30.45,30.29,0,0,0,0.00
2013-10-11,76,65,53,60,54,49,89,70,49,30.30,30.14,0,0,0,0.00
2013-10-12,69,62,49,59,49,37,81,64,43,30.51,30.16,0,0,0,0.00
2013-10-13,64,52,41,45,38,34,79,60,39,30.72,30.50,0,0,0,0.00
2013-10-14,63,51,37,45,39,32,81,65,46,30.70,30.34,0,0,0,0.00
2013-10-15,65,56,48,62,49,42,94,80,64,30.34,30.06,0,0,0,0.07
2013-10-16,54,51,49,46,44,43,86,79,74,30.26,30.14,0,0,0,0.00
2013-10-17,60,51,44,47,42,35,88,74,53,30.24,30.10,0,0,0,0.00
2013-10-18,54,47,42,42,39,36,84,73,63,30.27,30.12,0,0,0,0.00
2013-10-19,56,46,38,40,35,31,80,68,49,30.23,30.06,0,0,0,0.00
2013-10-20,63,50,38,48,41,33,83,72,56,30.13,29.98,0,0,0,0.00
2013-10-21,53,43,33,42,31,24,75,63,47,30.29,30.10,0,0,0,0.00
2013-10-22,36,34,30,35,30,24,93,85,72,30.29,30.17,0,0,0,0.15
2013-10-23,44,38,31,42,34,29,95,86,69,30.35,30.26,0,0,0,0.01
2013-10-24,46,38,30,34,28,22,84,68,55,30.64,30.34,0,0,0,0.00
2013-10-25,52,41,27,37,28,21,83,63,42,30.71,30.32,0,0,0,0.00
2013-10-26,55,47,37,38,31,26,67,55,45,30.41,30.17,0,0,0,0.00
2013-10-27,55,42,30,37,30,24,80,63,46,30.39,30.22,0,0,0,0.00
2013-10-30,59,56,52,58,54,49,95,93,90,30.33,30.01,0,0,0,0.54
2013-10-31,62,54,43,61,53,42,96,96,95,30.00,29.61,0,0,0,0.02
2013-11-1,50,45,41,46,43,40,96,93,88,30.06,29.74,0,0,0,0.00
2013-11-2,52,42,34,45,37,30,93,84,70,30.45,30.05,0,0,0,0.00
2013-11-3,52,41,30,40,34,27,92,77,53,30.56,30.43,0,0,0,0.00
2013-11-4,58,50,43,46,41,36,77,71,60,30.45,30.32,0,0,0,0.00
2013-11-5,54,52,50,52,48,44,95,87,75,30.51,30.14,0,0,0,0.06
2013-11-6,56,44,33,54,42,28,95,91,81,30.52,30.02,0,0,0,0.02
2013-11-7,41,35,28,35,30,25,90,84,79,30.58,30.52,0,0,0,0.00
2013-11-8,50,40,28,38,32,25,90,73,56,30.60,30.11,0,0,0,0.00
2013-11-9,57,49,40,42,38,32,73,66,55,30.50,30.10,0,0,0,0.00
2013-11-10,47,41,30,34,31,25,81,69,59,30.70,30.49,0,0,0,0.01
2013-11-11,48,38,22,36,29,16,85,71,60,30.91,30.37,0,0,0,0.00
2013-11-12,30,23,17,22,16,12,81,75,65,31.08,30.91,0,0,0,0.00
2013-11-13,42,32,19,22,18,13,80,59,41,30.93,30.42,0,0,0,0.00
2013-11-14,53,43,35,32,26,19,61,51,44,30.42,30.19,0,0,0,0.00
2013-11-15,54,45,37,35,30,24,77,58,47,30.25,30.14,0,0,0,0.00
2013-11-16,59,52,40,56,48,34,93,87,75,30.14,29.76,0,0,0,0.01
2013-11-17,70,52,40,63,48,36,94,86,70,30.13,29.43,0,0,0,0.00
2013-11-18,42,37,29,36,30,24,87,76,62,30.58,30.13,0,0,0,0.00
2013-11-19,41,32,25,30,26,21,87,78,63,30.65,30.49,0,0,0,0.00
2013-11-20,40,36,31,36,32,26,94,84,69,30.51,30.32,0,0,0,0.00
2013-11-21,46,41,37,44,39,36,95,92,90,30.57,30.35,0,0,0,0.00
2013-11-22,40,32,20,37,28,17,91,84,73,30.83,30.57,0,0,0,0.00
2013-11-23,23,19,11,17,12,4,86,73,59,31.07,30.80,0,0,0,0.00
2013-11-24,28,18,8,14,9,3,83,67,48,31.05,30.64,0,0,0,0.00
2013-11-25,36,30,20,28,22,11,85,72,62,30.64,30.37,0,0,0,0.00
2013-11-26,34,28,15,26,19,6,82,70,59,30.56,30.36,0,0,0,0.00
2013-11-27,27,17,10,15,9,3,74,69,59,30.63,30.52,0,0,0,0.00
2013-11-28,34,24,19,21,15,11,78,68,58,30.80,30.41,0,0,0,0.00
2013-11-29,36,28,14,24,20,10,87,70,55,30.91,30.64,0,0,0,0.00
2013-11-30,48,35,27,35,27,19,83,74,61,30.64,30.35,0,0,0,0.00
2013-12-1,43,36,30,33,29,25,85,76,67,30.43,30.25,0,0,0,0.00
2013-12-2,44,37,32,35,32,28,89,81,70,30.25,29.95,0,0,0,0.00
2013-12-3,46,42,37,44,40,34,94,92,87,29.96,29.87,0,0,0,0.00
2013-12-4,51,44,28,50,42,25,95,93,86,30.07,29.74,0,0,0,0.00
2013-12-5,28,21,17,25,15,10,87,77,70,30.61,30.07,0,0,0,0.00
2013-12-6,18,14,9,10,6,3,78,73,66,30.91,30.60,0,0,0,0.00
2013-12-7,17,10,2,7,2,-3,81,72,64,31.05,30.89,0,0,0,0.00
2013-12-8,22,18,12,20,13,4,89,80,67,30.90,30.27,0,0,0,0.00
2013-12-9,22,9,-3,19,6,-7,89,86,83,30.56,30.26,0,0,0,0.00
2013-12-10,19,12,-2,15,8,-6,87,84,79,30.59,30.28,0,0,0,0.00
2013-12-11,18,9,-3,15,4,-8,88,80,71,30.92,30.56,0,0,0,0.00
2013-12-12,22,12,-2,15,6,-7,82,78,71,30.88,30.50,0,0,0,0.00
2013-12-13,27,20,11,24,16,6,91,83,78,30.50,30.33,0,0,0,0.00
2013-12-14,31,25,16,28,22,13,92,89,87,30.36,30.27,0,0,0,0.00
2013-12-15,18,14,9,13,9,5,88,82,77,30.43,30.33,0,0,0,0.00
2013-12-16,21,18,12,18,13,8,87,84,80,30.41,30.28,0,0,0,0.00
2013-12-17,34,25,18,28,20,13,90,83,72,30.48,30.30,0,0,0,0.00
2013-12-18,37,26,14,30,20,10,85,78,65,30.48,30.09,0,0,0,0.00
2013-12-19,37,33,27,32,29,23,93,86,79,30.19,30.04,0,0,0,0.01
2013-12-20,33,29,26,31,27,24,94,93,91,30.15,30.03,0,0,0,0.00
2013-12-21,29,28,26,27,26,24,94,92,91,30.17,29.93,0,0,0,0.00
2013-12-22,31,24,17,29,22,14,94,92,89,30.51,30.13,0,0,0,0.00
2013-12-23,17,3,-5,14,-1,-9,89,84,80,30.82,30.51,0,0,0,0.00
2013-12-24,18,1,-10,14,-3,-14,88,83,81,30.89,30.58,0,0,0,0.00
2013-12-25,29,24,18,25,20,14,91,86,80,30.58,30.43,0,0,0,0.00
2013-12-26,38,26,14,31,22,10,89,84,75,30.56,30.41,0,0,0,0.00
2013-12-27,39,32,22,32,27,19,90,83,76,30.58,30.38,0,0,0,0.00
2013-12-28,45,39,33,37,32,29,86,77,67,30.39,30.07,0,0,0,0.00
2013-12-29,40,21,-1,31,15,-8,87,77,70,30.59,30.06,0,0,0,0.00
2013-12-30,13,3,-5,5,-3,-11,82,75,65,30.64,30.49,0,0,0,0.00
2013-12-31,16,7,-1,12,3,-5,84,81,80,30.66,30.50,0,0,0,0.00
2014-1-1,15,11,7,12,7,3,87,84,80,30.57,30.50,0,0,0,0.00
2014-1-2,15,9,-1,10,5,-6,86,84,81,30.76,30.52,0,0,0,0.00